Time;durP1;ratioP1;P1;durP2;ratioP2;P2;SDS_P1;SDS_P2;PMS_P1;PMS_P2;Temp;Humidity;BMP_temperature;BMP_pressure;BME280_temperature;BME280_humidity;BME280_pressure;Samples;Min_cycle;Max_cycle;Signal;HPM_P1;HPM_P2
2022/12/09 00:00:35;;;;;;;26.92;14.93;;;-3.10;99.90;;;;;;5033004;28;20025;-43
2022/12/09 00:03:01;;;;;;;30.15;14.63;;;-3.20;99.90;;;;;;5032833;28;20033;-39
2022/12/09 00:05:26;;;;;;;36.00;16.75;;;-3.10;99.90;;;;;;5033124;28;20088;-40
2022/12/09 00:07:52;;;;;;;40.42;16.88;;;-3.20;99.90;;;;;;5033145;28;20030;-40
2022/12/09 00:10:17;;;;;;;32.50;16.67;;;-3.20;99.90;;;;;;5033272;28;20025;-39
2022/12/09 00:12:43;;;;;;;28.73;15.10;;;-3.30;99.90;;;;;;5033103;28;20026;-45
2022/12/09 00:15:09;;;;;;;35.03;15.80;;;-3.40;99.90;;;;;;5033088;28;20441;-43
2022/12/09 00:17:35;;;;;;;30.15;15.70;;;-3.50;99.90;;;;;;5032777;28;20048;-40
2022/12/09 00:20:00;;;;;;;33.63;16.50;;;-3.50;99.90;;;;;;5033165;28;20025;-39
2022/12/09 00:22:26;;;;;;;37.65;16.23;;;-3.50;99.90;;;;;;5032826;28;20467;-39
2022/12/09 00:24:52;;;;;;;34.20;16.70;;;-3.50;99.90;;;;;;5032815;28;20021;-53
2022/12/09 00:27:17;;;;;;;39.25;17.17;;;-3.50;99.90;;;;;;5032873;28;20029;-39
2022/12/09 00:29:43;;;;;;;38.75;16.92;;;-3.50;99.90;;;;;;5032466;28;20373;-43
2022/12/09 00:32:09;;;;;;;31.58;16.73;;;-3.50;99.90;;;;;;5032533;28;20095;-38
2022/12/09 00:34:35;;;;;;;34.42;16.02;;;-3.50;99.90;;;;;;5031959;28;20029;-46
2022/12/09 00:37:00;;;;;;;34.45;15.75;;;-3.50;99.90;;;;;;5032505;28;20062;-39
2022/12/09 00:39:26;;;;;;;32.58;17.42;;;-3.50;99.90;;;;;;5032376;28;20035;-48
2022/12/09 00:41:52;;;;;;;35.70;16.98;;;-3.60;99.90;;;;;;5032515;28;20149;-46
2022/12/09 00:44:18;;;;;;;30.65;15.73;;;-3.60;99.90;;;;;;5032480;28;20026;-51
2022/12/09 00:46:43;;;;;;;33.95;15.90;;;-3.60;99.90;;;;;;5032391;28;20018;-44
2022/12/09 00:49:09;;;;;;;28.45;14.80;;;-3.70;99.90;;;;;;5032653;28;20014;-44
2022/12/09 00:51:35;;;;;;;29.92;15.75;;;-3.80;99.90;;;;;;5032241;28;20075;-38
2022/12/09 00:54:01;;;;;;;34.45;16.20;;;-3.80;99.90;;;;;;5032369;28;20107;-45
2022/12/09 00:56:29;;;;;;;34.38;17.45;;;-3.70;99.90;;;;;;5031988;28;20547;-41
2022/12/09 00:58:56;;;;;;;39.00;18.88;;;-3.70;99.90;;;;;;5032149;28;20037;-44
2022/12/09 01:01:22;;;;;;;55.53;22.00;;;-3.70;99.90;;;;;;5032025;28;20139;-47
2022/12/09 01:03:48;;;;;;;43.28;19.60;;;-3.60;99.90;;;;;;5031728;28;20072;-38
2022/12/09 01:06:17;;;;;;;35.88;17.67;;;-3.60;99.90;;;;;;5045914;28;20051;-40
2022/12/09 01:08:43;;;;;;;41.88;18.20;;;-3.60;99.90;;;;;;5051097;28;20096;-40
2022/12/09 01:11:18;;;;;;;33.92;16.67;;;-3.60;99.90;;;;;;5031443;28;20432;-41
2022/12/09 01:13:44;;;;;;;42.65;18.83;;;-3.60;99.90;;;;;;5031479;28;20149;-47
2022/12/09 01:16:22;;;;;;;37.30;18.45;;;-3.60;99.90;;;;;;5031234;28;20412;-39
2022/12/09 01:18:48;;;;;;;35.75;17.05;;;-3.70;99.90;;;;;;5024763;28;20026;-43
2022/12/09 01:21:14;;;;;;;33.05;15.70;;;-3.70;99.90;;;;;;5031580;28;20091;-42
2022/12/09 01:23:40;;;;;;;34.42;16.05;;;-3.80;99.90;;;;;;5031554;28;20037;-43
2022/12/09 01:26:06;;;;;;;38.20;15.98;;;-3.80;99.90;;;;;;5031847;28;20108;-39
2022/12/09 01:28:36;;;;;;;34.17;19.13;;;-3.80;99.90;;;;;;5050641;28;20025;-47
2022/12/09 01:31:14;;;;;;;40.38;19.88;;;-3.80;99.90;;;;;;5049325;28;20027;-41
2022/12/09 01:33:42;;;;;;;33.80;16.95;;;-3.80;99.90;;;;;;5040154;28;20083;-42
2022/12/09 01:36:12;;;;;;;35.80;15.93;;;-3.80;99.90;;;;;;5026177;28;20038;-46
2022/12/09 01:38:38;;;;;;;38.05;16.88;;;-3.80;99.90;;;;;;5024008;28;20022;-43
2022/12/09 01:41:04;;;;;;;32.08;15.68;;;-3.80;99.90;;;;;;5041101;28;20029;-51
2022/12/09 01:43:30;;;;;;;31.48;16.50;;;-3.80;99.90;;;;;;5035669;28;20408;-43
2022/12/09 01:45:55;;;;;;;35.95;16.38;;;-3.90;99.90;;;;;;5039289;28;20024;-49
2022/12/09 01:48:28;;;;;;;35.35;16.60;;;-3.90;99.90;;;;;;5041289;28;20480;-46
2022/12/09 01:51:04;;;;;;;29.90;16.00;;;-3.90;99.90;;;;;;5026250;28;20056;-48
2022/12/09 01:53:34;;;;;;;37.08;17.25;;;-3.90;99.90;;;;;;5040873;28;20048;-50
2022/12/09 01:56:04;;;;;;;31.48;15.18;;;-3.90;99.90;;;;;;5031430;28;20033;-51
2022/12/09 01:58:31;;;;;;;29.08;15.10;;;-3.90;99.90;;;;;;5033967;28;20067;-42
2022/12/09 02:00:56;;;;;;;26.65;14.57;;;-3.90;99.90;;;;;;5031354;28;20120;-43
2022/12/09 02:03:22;;;;;;;31.08;14.45;;;-3.90;99.90;;;;;;5030720;28;20124;-49
2022/12/09 02:05:48;;;;;;;37.15;15.43;;;-3.80;99.90;;;;;;5030436;28;20026;-39
2022/12/09 02:08:16;;;;;;;29.70;15.57;;;-3.80;99.90;;;;;;5030781;28;20038;-45
2022/12/09 02:11:09;;;;;;;28.42;15.35;;;-3.80;99.90;;;;;;5030777;28;20057;-52
2022/12/09 02:13:56;;;;;;;30.42;15.35;;;-3.80;99.90;;;;;;5030854;28;20025;-38
2022/12/09 02:16:24;;;;;;;29.67;14.98;;;-3.70;99.90;;;;;;5030804;28;20033;-42
2022/12/09 02:19:13;;;;;;;26.85;14.25;;;-3.80;99.90;;;;;;5030785;28;20192;-39
2022/12/09 02:21:50;;;;;;;27.05;14.27;;;-3.80;99.90;;;;;;5030631;28;20532;-40
2022/12/09 02:24:25;;;;;;;27.05;14.18;;;-3.90;99.90;;;;;;5030044;28;20033;-39
2022/12/09 02:27:04;;;;;;;29.17;13.98;;;-3.90;99.90;;;;;;5030972;28;20024;-49
2022/12/09 02:30:04;;;;;;;27.80;13.87;;;-3.90;99.90;;;;;;5030677;28;20093;-42
2022/12/09 02:32:36;;;;;;;;;;;-3.80;99.90;;;;;;5030710;28;20041;-38
2022/12/09 02:35:26;;;;;;;28.10;12.57;;;-3.80;99.90;;;;;;5017015;28;19931;-38
2022/12/09 02:37:55;;;;;;;30.73;12.93;;;-3.80;99.90;;;;;;5030155;28;20029;-46
2022/12/09 02:40:28;;;;;;;24.30;11.95;;;-3.70;99.90;;;;;;5030580;28;20512;-39
2022/12/09 02:42:54;;;;;;;22.85;11.55;;;-3.70;99.90;;;;;;5030407;28;20038;-39
2022/12/09 02:45:24;;;;;;;27.90;13.15;;;-3.70;99.90;;;;;;5030514;28;20048;-39
2022/12/09 02:47:51;;;;;;;33.13;16.25;;;-3.70;99.90;;;;;;5030527;28;20025;-42
2022/12/09 02:50:22;;;;;;;37.58;14.63;;;-3.60;99.90;;;;;;5030702;28;20083;-39
2022/12/09 02:52:51;;;;;;;35.60;17.58;;;-3.60;99.90;;;;;;5029938;28;20666;-42
2022/12/09 02:55:19;;;;;;;31.88;15.88;;;-3.60;99.90;;;;;;5030327;28;20476;-39
2022/12/09 02:57:51;;;;;;;44.58;16.95;;;-3.50;99.90;;;;;;5030117;28;20079;-44
2022/12/09 03:00:17;;;;;;;23.75;12.55;;;-3.50;99.90;;;;;;5030047;28;20473;-46
2022/12/09 03:02:46;;;;;;;20.27;10.40;;;-3.40;99.90;;;;;;5028541;28;20076;-44
2022/12/09 03:05:17;;;;;;;19.05;10.85;;;-3.40;99.90;;;;;;5029424;28;20018;-39
2022/12/09 03:08:06;;;;;;;23.60;10.40;;;-3.40;99.90;;;;;;5029976;28;20075;-42
2022/12/09 03:10:59;;;;;;;26.95;12.50;;;-3.40;99.90;;;;;;5030068;28;20051;-40
2022/12/09 03:13:55;;;;;;;31.70;13.85;;;-3.40;99.90;;;;;;5030275;28;20038;-44
2022/12/09 03:16:34;;;;;;;27.52;13.18;;;-3.40;99.90;;;;;;5030410;28;20018;-39
2022/12/09 03:19:06;;;;;;;31.80;12.93;;;-3.40;99.90;;;;;;5030432;28;20049;-39
2022/12/09 03:21:36;;;;;;;24.33;11.88;;;-3.30;99.90;;;;;;5029275;28;20496;-38
2022/12/09 03:24:01;;;;;;;;;;;-3.20;99.90;;;;;;5030728;28;20037;-39
2022/12/09 03:26:31;;;;;;;29.63;11.77;;;-3.20;99.90;;;;;;5030229;28;19913;-39
2022/12/09 03:29:00;;;;;;;27.05;13.18;;;-3.20;99.90;;;;;;5030330;28;20033;-39
2022/12/09 03:31:28;;;;;;;29.80;14.43;;;-3.10;99.90;;;;;;5030131;28;20037;-39
2022/12/09 03:33:58;;;;;;;33.25;13.90;;;-3.10;99.90;;;;;;5030542;28;20104;-39
2022/12/09 03:36:26;;;;;;;23.10;11.55;;;-3.10;99.90;;;;;;5033366;28;20396;-41
2022/12/09 03:38:53;;;;;;;24.38;11.07;;;-3.10;99.90;;;;;;5032451;28;20048;-45
2022/12/09 03:41:31;;;;;;;23.08;12.15;;;-3.10;99.90;;;;;;5033636;28;20030;-46
2022/12/09 03:44:08;;;;;;;30.85;13.88;;;-3.10;99.90;;;;;;5033679;28;20038;-39
2022/12/09 03:46:33;;;;;;;25.67;12.35;;;-3.00;99.90;;;;;;5033576;28;20114;-46
2022/12/09 03:48:59;;;;;;;28.08;13.27;;;-3.10;99.90;;;;;;5033498;28;20110;-43
2022/12/09 03:51:44;;;;;;;33.63;14.82;;;-3.10;99.90;;;;;;5033523;28;20087;-46
2022/12/09 03:54:13;;;;;;;29.77;13.02;;;-3.20;99.90;;;;;;5033416;28;20029;-44
2022/12/09 03:56:43;;;;;;;24.52;11.85;;;-3.20;99.90;;;;;;5033016;28;20103;-43
2022/12/09 03:59:12;;;;;;;21.80;11.05;;;-3.20;99.90;;;;;;5033105;28;20026;-39
2022/12/09 04:01:41;;;;;;;20.45;9.60;;;-3.20;99.90;;;;;;5032814;28;20021;-40
2022/12/09 04:04:07;;;;;;;20.98;10.48;;;-3.20;99.90;;;;;;5032981;28;20025;-41
2022/12/09 04:06:33;;;;;;;18.98;9.73;;;-3.20;99.90;;;;;;5032813;28;20108;-52
2022/12/09 04:08:59;;;;;;;21.08;9.80;;;-3.20;99.90;;;;;;5032485;28;20092;-42
2022/12/09 04:11:25;;;;;;;20.20;9.52;;;-3.20;99.90;;;;;;5033360;28;20045;-45
2022/12/09 04:13:50;;;;;;;27.27;11.88;;;-3.20;99.90;;;;;;5032805;28;20400;-42
2022/12/09 04:16:16;;;;;;;25.17;11.10;;;-3.30;99.90;;;;;;5032828;28;20113;-42
2022/12/09 04:18:41;;;;;;;24.15;11.38;;;-3.30;99.90;;;;;;5033012;28;20030;-47
2022/12/09 04:21:08;;;;;;;24.60;11.60;;;-4.10;99.90;;;;;;5032862;28;20025;-51
2022/12/09 04:23:35;;;;;;;26.02;12.15;;;-3.60;99.90;;;;;;5033123;28;20038;-42
2022/12/09 04:26:00;;;;;;;27.30;11.43;;;-3.70;99.90;;;;;;5032802;28;20021;-45
2022/12/09 04:28:26;;;;;;;26.60;12.23;;;-3.70;99.90;;;;;;5033175;28;20060;-53
2022/12/09 04:30:52;;;;;;;24.85;11.80;;;-3.80;99.90;;;;;;5032978;28;20159;-46
2022/12/09 04:33:17;;;;;;;21.27;9.93;;;-3.80;99.90;;;;;;5032231;28;20104;-45
2022/12/09 04:35:43;;;;;;;19.85;10.48;;;-3.70;99.90;;;;;;5032324;28;20029;-40
2022/12/09 04:38:09;;;;;;;18.63;10.13;;;-3.70;99.90;;;;;;5032480;28;20031;-39
2022/12/09 04:40:34;;;;;;;18.55;10.48;;;-3.60;99.90;;;;;;5032742;28;20029;-42
2022/12/09 04:43:00;;;;;;;23.25;11.50;;;-3.50;99.90;;;;;;5032287;28;20092;-42
2022/12/09 04:45:25;;;;;;;24.77;12.18;;;-3.50;99.90;;;;;;5031667;28;20033;-46
2022/12/09 04:47:51;;;;;;;22.15;11.45;;;-3.50;99.90;;;;;;5032269;28;20155;-45
2022/12/09 04:50:17;;;;;;;23.70;12.15;;;-3.50;99.90;;;;;;5031969;28;20468;-46
2022/12/09 04:52:43;;;;;;;21.13;11.15;;;-3.40;99.90;;;;;;5031917;28;20057;-38
2022/12/09 04:55:09;;;;;;;24.52;12.73;;;-3.40;99.90;;;;;;5032168;28;20025;-38
2022/12/09 04:57:35;;;;;;;27.60;12.80;;;-3.30;99.90;;;;;;5032042;28;20066;-47
2022/12/09 05:00:01;;;;;;;20.23;10.55;;;-3.20;99.90;;;;;;5031890;28;20039;-43
2022/12/09 05:02:28;;;;;;;24.80;11.25;;;-3.10;99.90;;;;;;5032034;28;20045;-44
2022/12/09 05:04:53;;;;;;;26.80;12.38;;;-3.00;99.90;;;;;;5031756;28;20488;-44
2022/12/09 05:07:19;;;;;;;23.90;11.35;;;-2.90;99.90;;;;;;5031790;28;20108;-45
2022/12/09 05:09:44;;;;;;;24.02;11.68;;;-2.80;99.90;;;;;;5031672;28;20033;-40
2022/12/09 05:12:10;;;;;;;22.80;11.43;;;-2.80;99.90;;;;;;5031395;28;20029;-41
2022/12/09 05:14:36;;;;;;;20.20;11.27;;;-2.60;99.90;;;;;;5031659;28;20020;-49
2022/12/09 05:17:02;;;;;;;20.45;11.60;;;-2.50;99.90;;;;;;5031833;28;20064;-38
2022/12/09 05:19:28;;;;;;;23.00;10.50;;;-2.40;99.90;;;;;;5031603;28;20018;-42
2022/12/09 05:21:53;;;;;;;20.60;10.82;;;-2.30;99.90;;;;;;5031869;28;20029;-52
2022/12/09 05:24:19;;;;;;;22.40;11.60;;;-2.10;99.90;;;;;;5031645;28;20034;-45
2022/12/09 05:26:45;;;;;;;23.88;12.05;;;-2.00;99.90;;;;;;5031591;28;20373;-47
2022/12/09 05:29:11;;;;;;;23.73;11.75;;;-1.90;99.90;;;;;;5031869;28;20029;-48
2022/12/09 05:31:36;;;;;;;21.90;10.95;;;-1.90;99.90;;;;;;5031326;28;20021;-49
2022/12/09 05:34:02;;;;;;;24.35;11.73;;;-2.00;99.90;;;;;;5031237;28;20120;-42
2022/12/09 05:36:28;;;;;;;23.30;11.10;;;-2.00;99.90;;;;;;5031306;28;20475;-38
2022/12/09 05:38:54;;;;;;;23.90;11.70;;;-1.90;99.90;;;;;;5031508;28;20017;-44
2022/12/09 05:41:21;;;;;;;21.50;10.93;;;-1.80;99.90;;;;;;5031142;28;20113;-41
2022/12/09 05:43:47;;;;;;;21.15;11.43;;;-1.80;99.90;;;;;;5031499;28;20095;-39
2022/12/09 05:46:13;;;;;;;21.52;11.68;;;-1.80;99.90;;;;;;5031290;28;20075;-53
2022/12/09 05:48:39;;;;;;;19.60;10.48;;;-1.70;99.90;;;;;;5031267;28;20018;-39
2022/12/09 05:51:21;;;;;;;23.13;10.52;;;-1.60;99.90;;;;;;5031251;28;20531;-38
2022/12/09 05:53:47;;;;;;;21.63;10.43;;;-1.60;99.90;;;;;;5031064;28;20108;-49
2022/12/09 05:56:20;;;;;;;21.60;10.55;;;-1.50;99.90;;;;;;5031079;28;20109;-47
2022/12/09 05:58:46;;;;;;;21.83;10.63;;;-1.40;99.90;;;;;;5030690;28;20112;-39
2022/12/09 06:01:12;;;;;;;20.20;10.13;;;-1.40;99.90;;;;;;5030974;28;20033;-48
2022/12/09 06:03:38;;;;;;;20.55;10.60;;;-1.30;99.90;;;;;;5030833;28;20041;-37
2022/12/09 06:06:05;;;;;;;25.23;12.23;;;-1.30;99.90;;;;;;5031120;28;20014;-38
2022/12/09 06:08:31;;;;;;;18.58;9.88;;;-1.20;99.90;;;;;;5030801;28;20029;-38
2022/12/09 06:10:56;;;;;;;20.73;9.63;;;-1.10;99.90;;;;;;5032568;28;20420;-39
2022/12/09 06:13:22;;;;;;;26.05;11.02;;;-1.00;99.90;;;;;;5030401;28;20053;-39
2022/12/09 06:15:48;;;;;;;20.60;10.02;;;-0.90;99.90;;;;;;5030295;28;20037;-42
2022/12/09 06:18:13;;;;;;;21.42;10.80;;;-0.80;99.90;;;;;;5030957;28;20497;-44
2022/12/09 06:20:40;;;;;;;18.40;11.35;;;-0.70;99.90;;;;;;5030779;28;20029;-39
2022/12/09 06:23:06;;;;;;;25.40;11.23;;;-0.70;99.90;;;;;;5030611;28;20036;-39
2022/12/09 06:25:32;;;;;;;23.42;11.40;;;-0.60;99.90;;;;;;5030752;28;20028;-41
2022/12/09 06:27:58;;;;;;;20.00;11.23;;;-0.60;99.90;;;;;;5030622;28;20030;-43
2022/12/09 06:30:23;;;;;;;20.92;11.52;;;-0.50;99.90;;;;;;5030638;28;20063;-38
2022/12/09 06:32:49;;;;;;;22.52;11.32;;;-0.50;99.90;;;;;;5030642;28;20061;-42
2022/12/09 06:35:14;;;;;;;21.38;10.88;;;-0.40;99.90;;;;;;5030636;28;20415;-41
2022/12/09 06:37:40;;;;;;;23.13;12.07;;;-0.30;99.90;;;;;;5030911;28;20063;-39
2022/12/09 06:40:07;;;;;;;26.98;12.23;;;-0.30;99.90;;;;;;5030258;28;20025;-44
2022/12/09 06:42:32;;;;;;;24.95;12.05;;;-0.20;99.90;;;;;;5030506;28;20042;-39
2022/12/09 06:44:58;;;;;;;25.15;13.27;;;-0.20;99.90;;;;;;5029322;28;20546;-45
2022/12/09 06:47:24;;;;;;;24.55;13.07;;;-0.10;99.90;;;;;;5030695;28;20034;-52
2022/12/09 06:49:49;;;;;;;25.50;12.90;;;-0.10;99.90;;;;;;5030141;28;20147;-41
2022/12/09 06:52:15;;;;;;;25.88;12.82;;;0.00;99.90;;;;;;5030603;28;20034;-43
2022/12/09 06:54:41;;;;;;;24.67;13.63;;;0.10;99.90;;;;;;5029041;28;20029;-39
2022/12/09 06:57:06;;;;;;;28.02;13.35;;;0.10;99.90;;;;;;5030249;28;20088;-53
2022/12/09 06:59:32;;;;;;;26.10;13.18;;;0.10;99.90;;;;;;5030363;28;20071;-54
2022/12/09 07:01:58;;;;;;;24.23;12.80;;;0.10;99.90;;;;;;5030287;28;20361;-49
2022/12/09 07:04:23;;;;;;;24.00;14.27;;;0.10;99.90;;;;;;5030522;28;20037;-42
2022/12/09 07:06:49;;;;;;;27.23;14.02;;;0.20;99.90;;;;;;5030050;28;20078;-40
2022/12/09 07:09:17;;;;;;;27.27;14.82;;;0.20;99.90;;;;;;5031539;28;20033;-47
2022/12/09 07:11:45;;;;;;;25.85;14.15;;;0.20;99.90;;;;;;5034068;28;20018;-45
2022/12/09 07:14:12;;;;;;;25.70;12.90;;;0.30;99.90;;;;;;5032763;28;20128;-43
2022/12/09 07:16:38;;;;;;;25.25;13.25;;;0.30;99.90;;;;;;5034169;28;20499;-40
2022/12/09 07:19:04;;;;;;;26.63;13.57;;;0.30;99.90;;;;;;5034031;28;20033;-41
2022/12/09 07:21:31;;;;;;;29.13;14.60;;;0.30;99.90;;;;;;5034167;28;20026;-45
2022/12/09 07:24:00;;;;;;;32.05;15.13;;;0.40;99.90;;;;;;5033598;28;20048;-40
2022/12/09 07:26:29;;;;;;;;;;;0.40;99.90;;;;;;5034035;28;20103;-42
2022/12/09 07:28:54;;;;;;;23.75;12.77;;;0.40;99.90;;;;;;5033570;28;19905;-48
2022/12/09 07:31:22;;;;;;;29.65;13.10;;;0.40;99.90;;;;;;5033128;28;20022;-40
2022/12/09 07:33:49;;;;;;;31.77;14.82;;;0.40;99.90;;;;;;5033948;28;20032;-50
2022/12/09 07:36:14;;;;;;;30.48;14.52;;;0.40;99.90;;;;;;5033603;28;20044;-40
2022/12/09 07:38:40;;;;;;;27.70;14.48;;;0.40;99.90;;;;;;5033705;28;20405;-40
2022/12/09 07:41:16;;;;;;;31.27;15.02;;;0.40;99.90;;;;;;5033285;28;20370;-48
2022/12/09 07:43:45;;;;;;;30.80;15.15;;;0.40;99.90;;;;;;5030349;28;20041;-43
2022/12/09 07:46:12;;;;;;;29.35;15.75;;;0.30;99.90;;;;;;5043181;28;20025;-43
2022/12/09 07:48:38;;;;;;;27.70;13.70;;;0.30;99.90;;;;;;5032311;28;20041;-40
2022/12/09 07:51:04;;;;;;;31.67;15.55;;;0.40;99.90;;;;;;5042132;28;20033;-45
2022/12/09 07:53:30;;;;;;;32.17;14.75;;;0.40;99.90;;;;;;5035290;28;20401;-43
2022/12/09 07:56:01;;;;;;;31.52;15.38;;;0.40;99.90;;;;;;5033292;28;20079;-41
2022/12/09 07:58:27;;;;;;;30.63;14.07;;;0.40;99.90;;;;;;5032399;28;20050;-38
2022/12/09 08:00:53;;;;;;;30.35;14.27;;;0.40;99.90;;;;;;5033149;28;20032;-39
2022/12/09 08:03:18;;;;;;;30.05;14.07;;;0.50;99.90;;;;;;5044197;28;20086;-45
2022/12/09 08:05:48;;;;;;;32.78;14.43;;;0.50;99.90;;;;;;5043267;28;20021;-45
2022/12/09 08:08:14;;;;;;;28.98;15.02;;;0.50;99.90;;;;;;5031803;28;20393;-45
2022/12/09 08:10:40;;;;;;;33.28;14.63;;;0.60;99.90;;;;;;5034585;28;20112;-43
2022/12/09 08:13:05;;;;;;;35.67;15.68;;;0.60;99.90;;;;;;5032755;28;20172;-40
2022/12/09 08:15:31;;;;;;;32.75;14.63;;;0.60;99.90;;;;;;5040060;28;20040;-40
2022/12/09 08:17:57;;;;;;;32.72;14.85;;;0.60;99.90;;;;;;5032117;28;20026;-43
2022/12/09 08:20:22;;;;;;;34.22;14.82;;;0.70;99.90;;;;;;5034705;28;20100;-40
2022/12/09 08:22:48;;;;;;;35.75;15.18;;;0.70;99.90;;;;;;5034092;28;20031;-43
2022/12/09 08:25:14;;;;;;;35.35;15.57;;;0.80;99.90;;;;;;5050109;28;20021;-40
2022/12/09 08:27:39;;;;;;;32.63;15.48;;;0.80;99.90;;;;;;5049694;28;20037;-39
2022/12/09 08:30:06;;;;;;;33.20;14.57;;;0.80;99.90;;;;;;5045775;28;20021;-40
2022/12/09 08:32:31;;;;;;;34.40;15.25;;;0.80;99.90;;;;;;5032843;28;20430;-43
2022/12/09 08:34:57;;;;;;;29.70;15.18;;;0.80;99.90;;;;;;5045366;28;20440;-47
2022/12/09 08:37:23;;;;;;;33.83;15.68;;;0.90;99.90;;;;;;5049200;28;20476;-43
2022/12/09 08:39:49;;;;;;;30.60;15.35;;;0.90;99.90;;;;;;5046369;28;20435;-40
2022/12/09 08:42:14;;;;;;;32.50;15.25;;;1.00;99.90;;;;;;5032389;28;20030;-41
2022/12/09 08:44:40;;;;;;;34.08;16.25;;;1.00;99.90;;;;;;5032185;28;20064;-40
2022/12/09 08:47:06;;;;;;;33.38;16.08;;;1.00;99.90;;;;;;5032462;28;20084;-44
2022/12/09 08:49:32;;;;;;;31.95;14.38;;;1.00;99.90;;;;;;5041565;28;20079;-42
2022/12/09 08:51:57;;;;;;;27.13;14.57;;;1.10;99.90;;;;;;5036819;28;20035;-42
2022/12/09 08:54:23;;;;;;;30.88;15.68;;;1.20;99.90;;;;;;5045543;28;20051;-41
2022/12/09 08:56:52;;;;;;;29.30;14.38;;;1.20;99.90;;;;;;5041767;28;20334;-45
2022/12/09 08:59:17;;;;;;;30.00;14.18;;;1.20;99.90;;;;;;5044258;28;20369;-53
2022/12/09 09:01:44;;;;;;;34.90;16.15;;;1.20;99.90;;;;;;5036342;28;20028;-43
2022/12/09 09:04:12;;;;;;;32.03;16.17;;;1.20;99.90;;;;;;5041406;28;20037;-41
2022/12/09 09:06:40;;;;;;;32.37;15.70;;;1.30;99.90;;;;;;5037056;28;20017;-47
2022/12/09 09:09:08;;;;;;;39.72;16.85;;;1.30;99.90;;;;;;5036152;28;20274;-40
2022/12/09 09:11:34;;;;;;;31.67;15.02;;;1.30;99.90;;;;;;5048311;28;20025;-46
2022/12/09 09:14:02;;;;;;;32.30;15.68;;;1.30;99.90;;;;;;5045120;28;20025;-52
2022/12/09 09:16:28;;;;;;;34.72;15.30;;;1.40;99.90;;;;;;5030772;28;20106;-41
2022/12/09 09:18:54;;;;;;;35.72;15.02;;;1.40;99.90;;;;;;5035805;28;20469;-42
2022/12/09 09:21:22;;;;;;;34.22;15.57;;;1.40;99.90;;;;;;5032722;28;20029;-43
2022/12/09 09:23:48;;;;;;;41.30;16.70;;;1.40;99.90;;;;;;5038155;28;20114;-43
2022/12/09 09:26:21;;;;;;;47.08;20.02;;;1.50;99.90;;;;;;5029381;28;20026;-43
2022/12/09 09:28:48;;;;;;;40.50;17.45;;;1.50;99.90;;;;;;5020182;28;20030;-40
2022/12/09 09:31:16;;;;;;;36.17;16.90;;;1.50;99.90;;;;;;5026604;28;20271;-44
2022/12/09 09:33:42;;;;;;;35.95;14.98;;;1.50;99.90;;;;;;5029382;28;20472;-41
2022/12/09 09:36:12;;;;;;;39.72;17.63;;;1.50;99.90;;;;;;5034957;28;20025;-40
2022/12/09 09:38:38;;;;;;;38.58;17.73;;;1.50;99.90;;;;;;5031331;28;20017;-40
2022/12/09 09:41:29;;;;;;;34.40;15.93;;;1.50;99.90;;;;;;5031381;28;20033;-42
2022/12/09 09:43:55;;;;;;;47.42;19.98;;;1.50;99.90;;;;;;5040998;28;20116;-43
2022/12/09 09:46:36;;;;;;;38.63;18.23;;;1.50;99.90;;;;;;5031539;28;20039;-40
2022/12/09 09:49:05;;;;;;;44.08;20.13;;;1.50;99.90;;;;;;5031249;28;20022;-42
2022/12/09 09:51:33;;;;;;;47.38;19.23;;;1.50;99.90;;;;;;5030527;28;20088;-40
2022/12/09 09:53:58;;;;;;;42.55;19.88;;;1.50;99.90;;;;;;5031327;28;20053;-41
2022/12/09 09:56:44;;;;;;;35.85;16.50;;;1.50;99.90;;;;;;5030854;28;20057;-42
2022/12/09 09:59:21;;;;;;;40.83;18.40;;;1.60;99.90;;;;;;5030980;28;20499;-41
2022/12/09 10:02:10;;;;;;;38.58;18.55;;;1.50;99.90;;;;;;5030023;28;20025;-40
2022/12/09 10:04:56;;;;;;;39.97;16.85;;;1.50;99.90;;;;;;5025647;28;20053;-41
2022/12/09 10:07:35;;;;;;;40.13;17.52;;;1.50;99.90;;;;;;5034684;28;20052;-48
2022/12/09 10:10:18;;;;;;;37.10;16.58;;;1.60;99.90;;;;;;5035516;28;20414;-40
2022/12/09 10:13:08;;;;;;;35.83;16.95;;;1.60;99.90;;;;;;5029362;28;20040;-41
2022/12/09 10:15:43;;;;;;;36.50;15.70;;;1.70;99.90;;;;;;5038449;28;20029;-41
2022/12/09 10:18:18;;;;;;;35.42;16.48;;;1.80;99.90;;;;;;5023785;28;20112;-40
2022/12/09 10:20:44;;;;;;;39.35;16.83;;;1.90;99.90;;;;;;5044426;28;20028;-41
2022/12/09 10:23:14;;;;;;;31.88;14.48;;;2.10;99.90;;;;;;5039459;28;20475;-41
2022/12/09 10:25:47;;;;;;;36.78;16.13;;;2.20;99.90;;;;;;5039164;28;20463;-41
2022/12/09 10:28:17;;;;;;;36.03;15.27;;;2.30;99.90;;;;;;5034054;28;20032;-45
2022/12/09 10:30:43;;;;;;;32.85;14.90;;;2.50;99.90;;;;;;5031074;28;20021;-40
2022/12/09 10:33:13;;;;;;;29.77;14.13;;;2.60;99.90;;;;;;5028513;28;20091;-50
2022/12/09 10:35:39;;;;;;;35.17;14.75;;;2.70;99.90;;;;;;5044098;28;20033;-39
2022/12/09 10:38:10;;;;;;;27.80;13.23;;;2.70;99.90;;;;;;5035439;28;20382;-42
2022/12/09 10:40:45;;;;;;;29.85;13.95;;;2.90;99.90;;;;;;5033117;28;20472;-44
2022/12/09 10:46:24;;;;;;;32.83;16.05;;;3.00;99.90;;;;;;5036517;28;20029;-40
2022/12/09 10:48:57;;;;;;;34.65;15.52;;;2.90;99.90;;;;;;5036171;28;20132;-45
2022/12/09 10:51:30;;;;;;;33.78;15.82;;;3.00;99.90;;;;;;5025120;28;20038;-48
2022/12/09 10:54:23;;;;;;;31.70;16.02;;;3.10;99.90;;;;;;5035859;28;20033;-45
2022/12/09 10:57:21;;;;;;;32.25;15.20;;;3.00;99.90;;;;;;5030003;28;20393;-48
2022/12/09 11:00:17;;;;;;;32.03;15.80;;;3.10;99.90;;;;;;5038897;28;20490;-40
2022/12/09 11:02:53;;;;;;;35.35;17.02;;;3.10;99.90;;;;;;5031098;28;20104;-38
2022/12/09 11:05:27;;;;;;;35.58;16.48;;;3.10;99.90;;;;;;5032557;28;20071;-40
2022/12/09 11:07:56;;;;;;;32.65;16.00;;;3.10;99.90;;;;;;5022056;28;20105;-44
2022/12/09 11:10:24;;;;;;;34.60;16.40;;;3.10;99.90;;;;;;5029858;28;20092;-37
2022/12/09 11:12:52;;;;;;;33.55;16.73;;;3.10;99.90;;;;;;5043362;28;20261;-39
2022/12/09 11:15:25;;;;;;;31.70;16.10;;;3.00;99.90;;;;;;5024842;28;20030;-41
2022/12/09 11:18:01;;;;;;;32.38;15.43;;;3.00;99.90;;;;;;5041122;28;20017;-45
2022/12/09 11:20:32;;;;;;;32.13;15.43;;;3.00;99.90;;;;;;5043704;28;20037;-41
2022/12/09 11:23:09;;;;;;;35.78;15.07;;;2.90;99.90;;;;;;5045104;28;20041;-50
2022/12/09 11:25:35;;;;;;;34.42;15.57;;;3.00;99.90;;;;;;5046957;28;20025;-41
2022/12/09 11:28:16;;;;;;;33.40;16.63;;;3.10;99.90;;;;;;5049396;28;20443;-42
2022/12/09 11:30:52;;;;;;;33.05;16.10;;;3.10;99.90;;;;;;5049332;28;20484;-45
2022/12/09 11:33:26;;;;;;;33.90;16.27;;;3.20;99.90;;;;;;5040092;28;20026;-45
2022/12/09 11:35:53;;;;;;;30.67;14.48;;;3.20;99.90;;;;;;5027895;28;20530;-47
2022/12/09 11:38:27;;;;;;;29.67;15.15;;;3.20;99.90;;;;;;5031320;28;20037;-45
2022/12/09 11:41:10;;;;;;;31.95;14.35;;;3.20;99.90;;;;;;5044927;28;20132;-48
2022/12/09 11:43:52;;;;;;;35.53;15.80;;;3.20;99.90;;;;;;5042502;28;20073;-50
2022/12/09 11:46:26;;;;;;;32.47;14.45;;;3.20;99.90;;;;;;5039520;28;20024;-47
2022/12/09 11:48:59;;;;;;;32.20;14.25;;;3.30;99.90;;;;;;5038374;28;20021;-50
2022/12/09 11:51:33;;;;;;;35.15;15.90;;;3.40;99.90;;;;;;5031663;28;20048;-46
2022/12/09 11:54:23;;;;;;;31.05;14.85;;;3.40;99.90;;;;;;5044468;28;20419;-50
2022/12/09 11:56:51;;;;;;;31.73;14.85;;;3.50;99.90;;;;;;5049488;28;20052;-48
2022/12/09 11:59:23;;;;;;;51.40;15.45;;;3.60;99.90;;;;;;5033232;28;20116;-43
2022/12/09 12:01:53;;;;;;;33.67;15.27;;;3.60;99.90;;;;;;5032571;28;20496;-43
2022/12/09 12:05:00;;;;;;;30.65;13.73;;;3.50;99.90;;;;;;5033165;28;20043;-43
2022/12/09 12:07:48;;;;;;;31.30;14.90;;;3.50;99.90;;;;;;5026230;28;20428;-45
2022/12/09 12:10:24;;;;;;;30.80;13.85;;;3.50;99.90;;;;;;5034067;28;20029;-42
2022/12/09 12:13:01;;;;;;;31.60;14.85;;;3.60;99.90;;;;;;5033406;28;20021;-42
2022/12/09 12:15:30;;;;;;;30.27;13.98;;;3.60;99.90;;;;;;5032522;28;20049;-45
2022/12/09 12:17:59;;;;;;;28.33;13.85;;;3.80;99.90;;;;;;5032309;28;20037;-46
2022/12/09 12:20:50;;;;;;;25.52;13.73;;;3.70;99.90;;;;;;5032419;28;20049;-41
2022/12/09 12:23:31;;;;;;;27.92;13.55;;;3.70;99.90;;;;;;5032392;28;20033;-48
2022/12/09 12:26:10;;;;;;;31.05;13.30;;;3.80;99.90;;;;;;5036010;28;20025;-42
2022/12/09 12:29:04;;;;;;;36.33;14.15;;;3.70;99.90;;;;;;5032386;28;20112;-43
2022/12/09 12:32:06;;;;;;;28.45;13.88;;;4.00;99.90;;;;;;5034323;28;20037;-40
2022/12/09 12:34:43;;;;;;;28.02;12.57;;;4.20;99.90;;;;;;5031769;28;20496;-51
2022/12/09 12:37:40;;;;;;;28.60;14.43;;;4.50;99.90;;;;;;5030068;28;20500;-43
2022/12/09 12:40:27;;;;;;;27.75;13.90;;;4.70;99.90;;;;;;5030910;28;20018;-51
2022/12/09 12:46:53;;;;;;;23.17;11.55;;;4.90;99.90;;;;;;5029005;28;20515;-47
2022/12/09 12:49:37;;;;;;;28.73;13.48;;;5.00;99.90;;;;;;5025988;28;20025;-49
2022/12/09 12:52:11;;;;;;;28.98;14.30;;;4.90;99.90;;;;;;5029648;28;20444;-46
2022/12/09 12:55:01;;;;;;;29.08;12.82;;;4.90;99.90;;;;;;5030054;28;20402;-41